Allen, MI (49227)

1:18 AM EDT on July 30, 2016 (GMT -0400)
Arnold St. | | Change Station

Elev 1014 ft 41.94 °N, 84.89 °W | Updated 5 minutes ago

Light Rain
Light Rain
67.6 °F
Feels Like 67.6 °F
N
0.0
Wind Variable Wind from ENE

Today
High -- | Low -- °F
--% Chance of Precip.
Yesterday
High -- | Low -- °F
Precip. -- in
Pressure 29.96 in
Visibility 5.0 miles
Clouds Scattered Clouds 6000 ft
Overcast 12000 ft
Dew Point 66 °F
Humidity 95%
Rainfall 0.10 in
Snow Depth Not available.
6:31 AM 8:59 PM
Waning Crescent, 16% visible
METAR KJYM 300515Z AUTO 06007KT 5SM -RA SCT060 OVC120 20/19 A2996 RMK AO2 P0001 T01990188
Pressure 29.96 in
Visibility 5.0 miles
Clouds Scattered Clouds 6000 ft
Overcast 12000 ft
Dew Point 66 °F
Humidity 95%
Rainfall 0.10 in
Snow Depth Not available.
6:31 AM 8:59 PM
Waning Crescent, 16% visible
METAR KJYM 300515Z AUTO 06007KT 5SM -RA SCT060 OVC120 20/19 A2996 RMK AO2 P0001 T01990188

10-Day Weather Forecast

Almanac

Astronomy

Jul. 30, 2016 Rise Set
Actual Time
Civil Twilight
Nautical Twilight
Astronomical Twilight
Moon
Length of Visible Light
Length of Day
Tomorrow will be .
, % of the Moon is Illuminated

Today's Extremes

State Highs State Lows

Community

WunderPhotos

Upload Photos

1,928,506 photos uploaded!

WunderBlog® & News

Nearby

Air Quality

  Air Quality AQ Index Pollutant
Not available.

Snow Depth

Station Depth Elevation

Earthquake Activity

City Distance Mag. Time & Date
Minimum magnitude displayed is 2.5.

Coastal Water Temperatures

Place Temperature

Stations

Nearby Weather Stations

Station Location Temp. Windchill Dew Point Humidity Wind Precip. Elev Updated Type
                   

Watches & Warnings

There are currently no watches in effect.